STAZIONE METEO DI BARCELLONA P.G. CENTRO
Dati campionati ogni minuto da Consolle Davis Vantage Pro 2
ed inviati alla rete mediante server Anemos WDS5 wview



Barcellona P.G. Centro more information Barcellona P.G. Centro


Golfo di Patti more information Golfo di Patti


Thunder radar more information blitzortung!


Rain radar  rain snow radar


altri nostri siti meteo:

Rischio IncendiRischio Incendi

Rete NOAA MADIS

Italia Meteo Network

PomeziameteoSito web di stazione meteo amica



Non è richiesta alcuna attenzione speciale.    Non sono presenti avvisi meteorologici di particolare rilevanza

Report METAR

   
LICF - Messina, Italy
Distanza dalla stazione: NE 30 km
Dati ricevuti: 08-12-2019 13:55
Poche nuvole  
Poche nuvole  
   Vento: NE 11.1 km/h
Vento: NE 11.1 km/h
Temperatura: 19°C
P.to Rugiada: 8°C
Umidità: 49%
Barometro: 1020 hPa
Nuvole: Poche nuvole
Visibilità: oltre 10 km
dettagli cloud: Poche nuvole 914.4 m
LICF 081255Z 05006KT 9999 FEW030 19/08 Q1020
LICR - Reggio Calabria, Italy
Distanza dalla stazione: SE 39 km
Dati ricevuti: 08-12-2019 13:50
Sereno  
Sereno  
   Vento: Nord 18.5 km/h
Vento: Nord 18.5 km/h
Temperatura: 20°C
P.to Rugiada: 9°C
Umidità: 49%
Barometro: 1020 hPa
Visibilità: oltre 10 km
dettagli cloud: Sereno
LICR 081250Z 36010KT 330V030 CAVOK 20/09 Q1020
LICC - Catania/Fontanar, Italy
Distanza dalla stazione: S 77 km
Dati ricevuti: 08-12-2019 14:20
Sereno  
Sereno  
   Vento: West 5.6 km/h
Vento: West 5.6 km/h
Temperatura: 19°C
P.to Rugiada: 8°C
Umidità: 49%
Barometro: 1020 hPa
Visibilità: oltre 10 km
dettagli cloud: Sereno
LICC 081320Z 26003KT 210V280 CAVOK 19/08 Q1020
LICZ - Sigonella (nas), Italy
Distanza dalla stazione: S 89 km
Dati ricevuti: 08-12-2019 13:55
Molto nuvoloso  
Molto nuvoloso  
   Vento: West 3.7 km/h
Vento: West 3.7 km/h
Temperatura: 18°C
P.to Rugiada: 10°C
Umidità: 60%
Barometro: 1020 hPa
Nuvole: Molto nuvoloso
Visibilità: oltre 10 km
dettagli cloud: Poche nuvole 609.6 m,
Molto nuvoloso 2438.4 m
LICZ 081255Z 28002KT 9999 FEW020 BKN080 18/10 Q1020
LICA - Lamezia Terme, Italy
Distanza dalla stazione: NE 122 km
Dati ricevuti: 08-12-2019 13:50
Parzialmente nuvoloso  
Parzialmente nuvoloso  
   Vento: West 20.4 km/h
Vento: West 20.4 km/h
Temperatura: 18°C
P.to Rugiada: 13°C
Umidità: 73%
Barometro: 1021 hPa
Nuvole: Parzialmente nuvoloso
Visibilità: oltre 10 km
dettagli cloud: Parzialmente nuvoloso 457.2 m
LICA 081250Z 26011KT 9999 SCT015 18/13 Q1021
LICB - Comiso, Italy
Distanza dalla stazione: S 138 km
Dati ricevuti: 08-12-2019 13:50
Sereno  
Sereno  
   Vento: NE 5.6 km/h
Vento: NE 5.6 km/h
Temperatura: 17°C
P.to Rugiada: 8°C
Umidità: 56%
Barometro: 1020 hPa
Visibilità: oltre 10 km
dettagli cloud: Sereno
LICB 081250Z 07003KT 020V100 CAVOK 17/08 Q1020

Script sviluppato da  Saratoga-weather.org Adattato per il modello da  Weerstation Leuven

Potete trovare le nostre info meteo anche a:

European Weather Network

Weather Underground

AWEKAS

Citizen Weather Observer Program (CWOP)

HAMweather, WeatherForYou, PWS Weather

Attrezzature usate:

Stazione meteo
Davis VP2

Programma gestore dati meteo
WVIEW

Server per i dati meteo
WDS5 Ecoblack

Davis VP2

WVIEW

WDS5 Ecoblack